»·PEaware :: N751LU W43-KIEN

N751LU :: W43-KIEN

FLIGHT INFORMATION

Flight Status: Arrived
Operator: Privately registered:
United States
More flights under this callsign
Pilot: Ewen S. (18928)
Aircraft: Unknown
(LEG2)
More flights by this aircraft type
Origin: W43 Hulett Municipal
United States
Destination: KIEN Pine Ridge
United States
More flights between these airports :: More routes between these airports
Route: +KARAS V86 RAP ZUNON
File this flight plan on PilotEdge
Remarks: turboprop
Altitude:
(Current/Filed)
13,000ft
Speed:
(Current/Filed)
215kts
Departed: 14-Sep-18 11:52 AM
Arrived: 14-Sep-18 12:45 PM
Distance/Time
Traveled:
132nm/0:53
Distance/Time
To Go:
Arrived

Flight Plot

Page will automatically refresh every two minutes.

Flight plan parsing failed; only flown route is shown


Map Options




Map Legend


Flown Route
Filed Route
Departure Airport
Arrival Airport
Navaid (VOR, NDB)
Fix

Horizontal Profiles

Position Reports

Time Latitude Longitude Heading Altitude Ground
Speed
14-Sep-18 11:31 44.657733 -104.561568 338 4267ft 0kts
14-Sep-18 11:32 44.657733 -104.561568 338 4267ft 0kts
14-Sep-18 11:33 44.657733 -104.561568 338 4267ft 0kts
14-Sep-18 11:34 44.657733 -104.561568 338 4267ft 0kts
14-Sep-18 11:35 44.657733 -104.561568 338 4267ft 0kts
14-Sep-18 11:36 44.657733 -104.561568 338 4267ft 0kts
14-Sep-18 11:37 44.657733 -104.561568 338 4267ft 0kts
14-Sep-18 11:38 44.657733 -104.561568 338 4267ft 0kts
14-Sep-18 11:39 44.657747 -104.561576 338 4267ft 0kts
14-Sep-18 11:40 44.657751 -104.561578 338 4267ft 0kts
14-Sep-18 11:41 44.657755 -104.561580 338 4267ft 0kts
14-Sep-18 11:42 44.657760 -104.561583 337 4267ft 0kts
14-Sep-18 11:43 44.657837 -104.561646 301 4267ft 4kts
14-Sep-18 11:44 44.657574 -104.561100 180 4267ft 0kts
14-Sep-18 11:45 44.657572 -104.561101 180 4267ft 0kts
14-Sep-18 11:46 44.657571 -104.561101 180 4267ft 0kts
14-Sep-18 11:47 44.657569 -104.561101 180 4267ft 0kts
14-Sep-18 11:48 44.657568 -104.561101 180 4267ft 0kts
14-Sep-18 11:49 44.657566 -104.561101 180 4267ft 0kts
14-Sep-18 11:50 44.657447 -104.561201 219 4267ft 0kts
14-Sep-18 11:51 44.657446 -104.561202 219 4267ft 0kts
14-Sep-18 11:52 44.657444 -104.561204 219 4267ft 0kts
14-Sep-18 11:53 44.657410 -104.561243 219 4267ft 4kts
14-Sep-18 11:54 44.664677 -104.569435 325 4315ft 130kts
14-Sep-18 11:55 44.671068 -104.617177 211 5698ft 188kts
14-Sep-18 11:56 44.622918 -104.583023 141 7092ft 226kts
14-Sep-18 11:57 44.582370 -104.522630 143 8407ft 206kts
14-Sep-18 11:58 44.537943 -104.487009 158 9932ft 166kts
14-Sep-18 11:59 44.496929 -104.459711 163 11635ft 174kts
14-Sep-18 12:00 44.449158 -104.428914 165 12935ft 212kts
14-Sep-18 12:01 44.389134 -104.391493 163 12993ft 251kts
14-Sep-18 12:02 44.326236 -104.350652 163 12988ft 247kts
14-Sep-18 12:03 44.270339 -104.301728 131 12989ft 250kts
14-Sep-18 12:04 44.249101 -104.209782 115 13002ft 246kts
14-Sep-18 12:05 44.228066 -104.119634 115 13009ft 242kts
14-Sep-18 12:06 44.207738 -104.030399 115 13006ft 242kts
14-Sep-18 12:07 44.188135 -103.943203 115 13005ft 242kts
14-Sep-18 12:08 44.160284 -103.861576 148 13005ft 226kts
14-Sep-18 12:09 44.110419 -103.809460 150 13008ft 224kts
14-Sep-18 12:10 44.062580 -103.752996 148 13017ft 226kts
14-Sep-18 12:11 44.020585 -103.701913 148 13023ft 237kts
14-Sep-18 12:12 43.972445 -103.643242 147 13022ft 230kts
14-Sep-18 12:13 43.923945 -103.584333 148 13023ft 236kts
14-Sep-18 12:14 43.875728 -103.525714 147 13039ft 228kts
14-Sep-18 12:15 43.824854 -103.471585 157 12524ft 233kts
14-Sep-18 12:16 43.768699 -103.426209 157 11622ft 233kts
14-Sep-18 12:17 43.711612 -103.382678 157 10726ft 238kts
14-Sep-18 12:18 43.651928 -103.340798 158 10063ft 237kts
14-Sep-18 12:19 43.594185 -103.301236 158 10010ft 232kts
14-Sep-18 12:20 43.536344 -103.261966 158 10009ft 236kts
14-Sep-18 12:21 43.477191 -103.222461 158 10002ft 243kts
14-Sep-18 12:22 43.424115 -103.167401 139 9823ft 249kts
14-Sep-18 12:23 43.376062 -103.104307 138 9572ft 228kts
14-Sep-18 12:24 43.331847 -103.043874 136 9375ft 224kts
14-Sep-18 12:25 43.287371 -102.981974 137 9016ft 234kts
14-Sep-18 12:26 43.242331 -102.920864 137 8597ft 231kts
14-Sep-18 12:27 43.196792 -102.859446 137 8104ft 233kts
14-Sep-18 12:28 43.151583 -102.798408 137 7610ft 227kts
14-Sep-18 12:29 43.107265 -102.738648 136 7116ft 222kts
14-Sep-18 12:30 43.062542 -102.678619 136 6995ft 229kts
14-Sep-18 12:31 43.017427 -102.618164 136 6995ft 225kts
14-Sep-18 12:32 42.972542 -102.558085 136 6987ft 227kts
14-Sep-18 12:33 42.929092 -102.499856 136 6987ft 198kts
14-Sep-18 12:34 42.889451 -102.446665 136 5867ft 193kts
14-Sep-18 12:35 42.854762 -102.398019 121 5682ft 171kts
14-Sep-18 12:36 42.863134 -102.342774 41 5716ft 141kts
14-Sep-18 12:37 42.895672 -102.312208 14 5624ft 150kts
14-Sep-18 12:38 42.926906 -102.347275 314 5055ft 149kts
14-Sep-18 12:39 42.951198 -102.387369 310 5030ft 130kts
14-Sep-18 12:40 42.973864 -102.425971 310 4768ft 127kts
14-Sep-18 12:41 42.994988 -102.461366 306 4050ft 114kts
14-Sep-18 12:42 43.013806 -102.494279 300 3444ft 117kts
14-Sep-18 12:43 43.027923 -102.540685 239 4312ft 154kts
14-Sep-18 12:44 42.995211 -102.513937 125 4850ft 157kts
14-Sep-18 12:45 42.990553 -102.466764 26 4417ft 127kts
14-Sep-18 12:46 43.014913 -102.495822 306 3398ft 109kts
14-Sep-18 12:47 43.025566 -102.514129 249 3336ft 6kts
14-Sep-18 12:48 43.025323 -102.517663 287 3336ft 5kts
14-Sep-18 12:49 43.025323 -102.517856 255 3336ft 0kts

Navigation Log

Ident Type
Flight plan parsing failed, navigation log unavailable